Goodwell, Oklahoma
Current Conditions -  °F | °C
As of 8:53 PM on Tuesday 25 Nov 2014 (Local Time) from KGUY Reporting Station
Clear Clear  
Wind Chill: 28°   Ceiling: Unl
Heat Index: 33°   Visibility: 10mi
Dew Point: 15°   Wind: 6mph
Humidity: 48%   Direction: 260°W
Pressure: 29.94"   Gusts: NA
Location:  36.6°N, 101.64°W
Report Text: KGUY 260253Z AUTO 26005KT 10SM CLR 01/M09 A2994 RMK AO2 SLP148 T00061094 53008
Loading
Personal Weather Stations






























Interactive Weather Map New forecast layout! Learn more

10-Day Weather Forecast

Advertisements
Track Severe Weather on mobile